createdAt,value
2018-09-18T00:00:25.293Z,100.00
2018-09-18T00:02:55.402Z,100.00
2018-09-18T00:05:24.595Z,100.00
2018-09-18T00:07:53.870Z,100.00
2018-09-18T00:10:23.129Z,100.00
2018-09-18T00:12:52.369Z,100.00
2018-09-18T00:15:21.582Z,100.00
2018-09-18T00:17:50.736Z,100.00
2018-09-18T00:20:19.936Z,100.00
2018-09-18T00:22:49.181Z,100.00
2018-09-18T00:25:18.440Z,100.00
2018-09-18T00:27:47.566Z,100.00
2018-09-18T00:30:16.720Z,100.00
2018-09-18T00:32:45.917Z,100.00
2018-09-18T00:35:15.179Z,100.00
2018-09-18T00:37:44.438Z,100.00
2018-09-18T00:40:13.641Z,100.00
2018-09-18T00:42:42.874Z,100.00
2018-09-18T00:45:12.155Z,100.00
2018-09-18T00:47:41.677Z,100.00
2018-09-18T00:50:10.869Z,100.00
2018-09-18T00:52:40.143Z,100.00
2018-09-18T00:55:10.197Z,100.00
2018-09-18T00:57:39.420Z,100.00
2018-09-18T01:00:08.809Z,100.00
2018-09-18T01:02:37.997Z,100.00
2018-09-18T01:05:07.400Z,100.00
2018-09-18T01:07:36.696Z,100.00
2018-09-18T01:10:06.217Z,100.00
2018-09-18T01:12:35.431Z,100.00
2018-09-18T01:15:04.988Z,100.00
2018-09-18T01:17:34.184Z,100.00
2018-09-18T01:20:03.454Z,100.00
2018-09-18T01:22:32.620Z,100.00
2018-09-18T01:25:02.326Z,100.00
2018-09-18T01:27:31.531Z,100.00
2018-09-18T01:30:00.730Z,100.00
2018-09-18T01:32:29.925Z,100.00
2018-09-18T01:34:59.613Z,100.00
2018-09-18T01:37:29.161Z,100.00
2018-09-18T01:39:58.434Z,100.00
2018-09-18T01:42:27.629Z,100.00
2018-09-18T01:44:57.092Z,100.00
2018-09-18T01:47:27.060Z,100.00
2018-09-18T01:49:56.171Z,100.00
2018-09-18T01:52:25.614Z,100.00
2018-09-18T01:54:54.860Z,100.00
2018-09-18T01:57:24.388Z,100.00
2018-09-18T01:59:53.655Z,100.00
2018-09-18T02:02:23.277Z,100.00
2018-09-18T02:04:52.465Z,100.00
2018-09-18T02:07:21.678Z,100.00
2018-09-18T02:09:50.857Z,100.00
2018-09-18T02:12:19.994Z,100.00
2018-09-18T02:14:49.183Z,100.00
2018-09-18T02:17:18.388Z,100.00
2018-09-18T02:19:48.138Z,100.00
2018-09-18T02:22:17.331Z,100.00
2018-09-18T02:24:46.537Z,100.00
2018-09-18T02:27:15.787Z,100.00
2018-09-18T02:29:44.986Z,100.00
2018-09-18T02:32:14.154Z,100.00
2018-09-18T02:34:43.649Z,100.00
2018-09-18T02:37:12.868Z,100.00
2018-09-18T02:39:42.108Z,100.00
2018-09-18T02:42:11.229Z,100.00
2018-09-18T02:44:40.446Z,100.00
2018-09-18T02:47:09.692Z,100.00
2018-09-18T02:49:38.883Z,100.00
2018-09-18T02:52:08.390Z,100.00
2018-09-18T02:54:37.594Z,100.00
2018-09-18T02:57:06.487Z,100.00
2018-09-18T02:59:35.639Z,100.00
2018-09-18T03:02:05.288Z,100.00
2018-09-18T03:04:34.513Z,100.00
2018-09-18T03:07:03.757Z,100.00
2018-09-18T03:09:32.928Z,100.00
2018-09-18T03:12:02.196Z,100.00
2018-09-18T03:14:31.511Z,100.00
2018-09-18T03:17:00.724Z,100.00
2018-09-18T03:19:29.891Z,100.00
2018-09-18T03:21:59.061Z,100.00
2018-09-18T03:24:28.223Z,100.00
2018-09-18T03:26:57.371Z,100.00
2018-09-18T03:29:26.602Z,100.00
2018-09-18T03:31:55.878Z,100.00
2018-09-18T03:34:25.033Z,100.00
2018-09-18T03:36:54.220Z,100.00
2018-09-18T03:39:23.401Z,100.00
2018-09-18T03:41:52.528Z,100.00
2018-09-18T03:44:21.723Z,100.00
2018-09-18T03:46:50.892Z,100.00
2018-09-18T03:49:20.023Z,100.00
2018-09-18T03:51:49.263Z,100.00
2018-09-18T03:54:18.485Z,100.00
2018-09-18T03:56:47.723Z,100.00
2018-09-18T03:59:17.198Z,100.00
2018-09-18T04:01:46.367Z,100.00
2018-09-18T04:04:15.577Z,100.00
2018-09-18T04:06:45.478Z,100.00
2018-09-18T04:09:16.196Z,100.00
2018-09-18T04:11:45.362Z,100.00
2018-09-18T04:14:14.509Z,100.00
2018-09-18T04:16:43.703Z,100.00
2018-09-18T04:19:12.916Z,100.00
2018-09-18T04:21:43.306Z,100.00
2018-09-18T04:24:12.432Z,100.00
2018-09-18T04:26:42.021Z,100.00
2018-09-18T04:29:11.254Z,100.00
2018-09-18T04:31:41.430Z,100.00
2018-09-18T04:34:10.593Z,100.00
2018-09-18T04:36:39.757Z,100.00
2018-09-18T04:39:10.990Z,100.00
2018-09-18T04:41:40.191Z,100.00
2018-09-18T04:44:10.088Z,100.00
2018-09-18T04:46:39.264Z,100.00
2018-09-18T04:49:09.457Z,100.00
2018-09-18T04:51:38.575Z,100.00
2018-09-18T04:54:07.771Z,100.00
2018-09-18T04:56:39.269Z,100.00
2018-09-18T04:59:08.421Z,100.00
2018-09-18T05:01:38.812Z,100.00
2018-09-18T05:04:07.980Z,100.00
2018-09-18T05:06:37.151Z,100.00
2018-09-18T05:09:08.802Z,100.00
2018-09-18T05:11:38.076Z,100.00
2018-09-18T05:14:07.275Z,100.00
2018-09-18T05:16:36.445Z,100.00
2018-09-18T05:19:05.680Z,100.00
2018-09-18T05:21:34.906Z,100.00
2018-09-18T05:24:04.136Z,100.00
2018-09-18T05:26:33.648Z,100.00
2018-09-18T05:29:02.810Z,100.00
2018-09-18T05:31:31.953Z,100.00
2018-09-18T05:34:01.151Z,100.00
2018-09-18T05:36:30.565Z,100.00
2018-09-18T05:38:59.708Z,100.00
2018-09-18T05:41:28.974Z,100.00
2018-09-18T05:43:58.122Z,100.00
2018-09-18T05:46:27.261Z,100.00
2018-09-18T05:48:56.434Z,100.00
2018-09-18T05:51:25.548Z,100.00
2018-09-18T05:53:54.810Z,100.00
2018-09-18T05:56:23.965Z,100.00
2018-09-18T05:58:53.137Z,100.00
2018-09-18T06:01:22.361Z,100.00
2018-09-18T06:03:51.546Z,100.00
2018-09-18T06:06:20.706Z,100.00
2018-09-18T06:08:49.948Z,100.00
2018-09-18T06:11:19.122Z,100.00
2018-09-18T06:13:48.312Z,100.00
2018-09-18T06:16:17.497Z,100.00
2018-09-18T06:18:47.069Z,100.00
2018-09-18T06:21:16.176Z,100.00
2018-09-18T06:23:45.396Z,100.00
2018-09-18T06:26:14.624Z,100.00
2018-09-18T06:28:43.769Z,100.00
2018-09-18T06:31:12.993Z,100.00
2018-09-18T06:33:42.197Z,100.00
2018-09-18T06:36:11.452Z,100.00
2018-09-18T06:38:40.697Z,100.00
2018-09-18T06:41:09.817Z,100.00
2018-09-18T06:43:39.013Z,100.00
2018-09-18T06:46:08.488Z,100.00
2018-09-18T06:48:37.950Z,100.00
2018-09-18T06:51:07.312Z,100.00
2018-09-18T06:53:36.560Z,100.00
2018-09-18T06:56:05.824Z,99.49
2018-09-18T06:58:35.671Z,99.95
2018-09-18T07:01:04.976Z,99.05
2018-09-18T07:03:34.222Z,99.32
2018-09-18T07:06:03.569Z,99.32
2018-09-18T07:08:32.881Z,99.74
2018-09-18T07:11:02.303Z,99.05
2018-09-18T07:13:32.560Z,99.01
2018-09-18T07:16:01.765Z,97.69
2018-09-18T07:18:31.029Z,97.17
2018-09-18T07:21:00.641Z,97.05
2018-09-18T07:23:29.894Z,95.05
2018-09-18T07:25:59.179Z,95.00
2018-09-18T07:28:28.416Z,93.31
2018-09-18T07:30:57.845Z,93.50
2018-09-18T07:33:27.111Z,92.96
2018-09-18T07:35:56.423Z,92.35
2018-09-18T07:38:25.702Z,92.32
2018-09-18T07:40:55.052Z,89.91
2018-09-18T07:43:24.255Z,90.73
2018-09-18T07:45:53.479Z,89.98
2018-09-18T07:48:22.729Z,89.76
2018-09-18T07:50:52.233Z,87.77
2018-09-18T07:53:21.425Z,86.80
2018-09-18T07:55:51.224Z,87.32
2018-09-18T07:58:20.398Z,87.14
2018-09-18T08:00:50.069Z,86.96
2018-09-18T08:03:19.362Z,87.89
2018-09-18T08:05:49.060Z,86.96
2018-09-18T08:08:18.435Z,87.07
2018-09-18T08:10:47.820Z,86.67
2018-09-18T08:13:17.111Z,86.33
2018-09-18T08:15:46.362Z,85.21
2018-09-18T08:18:15.640Z,85.73
2018-09-18T08:20:44.895Z,83.55
2018-09-18T08:23:14.141Z,83.82
2018-09-18T08:25:43.423Z,83.10
2018-09-18T08:28:12.982Z,82.80
2018-09-18T08:30:42.281Z,80.76
2018-09-18T08:33:11.771Z,80.22
2018-09-18T08:35:40.945Z,81.56
2018-09-18T08:38:10.128Z,81.45
2018-09-18T08:40:39.333Z,81.23
2018-09-18T08:43:08.720Z,78.84
2018-09-18T08:45:37.858Z,78.27
2018-09-18T08:48:07.001Z,77.76
2018-09-18T08:50:36.340Z,78.71
2018-09-18T08:53:05.575Z,79.82
2018-09-18T08:55:34.887Z,76.87
2018-09-18T08:58:04.710Z,74.63
2018-09-18T09:00:33.870Z,75.39
2018-09-18T09:03:03.201Z,74.93
2018-09-18T09:05:32.409Z,75.55
2018-09-18T09:08:01.687Z,76.48
2018-09-18T09:10:30.884Z,73.79
2018-09-18T09:13:00.011Z,74.39
2018-09-18T09:15:29.210Z,73.26
2018-09-18T09:17:58.467Z,73.06
2018-09-18T09:20:27.624Z,73.03
2018-09-18T09:22:56.914Z,70.00
2018-09-18T09:25:26.081Z,71.40
2018-09-18T09:27:55.273Z,71.08
2018-09-18T09:30:24.423Z,69.77
2018-09-18T09:32:53.711Z,69.27
2018-09-18T09:35:22.878Z,68.65
2018-09-18T09:37:52.066Z,69.30
2018-09-18T09:40:21.285Z,69.91
2018-09-18T09:42:50.505Z,69.19
2018-09-18T09:45:19.780Z,67.43
2018-09-18T09:47:48.930Z,65.23
2018-09-18T09:50:18.120Z,64.17
2018-09-18T09:52:47.262Z,65.36
2018-09-18T09:55:16.477Z,66.25
2018-09-18T09:57:45.659Z,66.75
2018-09-18T10:00:20.009Z,64.89
2018-09-18T10:02:49.435Z,65.28
2018-09-18T10:05:19.361Z,64.35
2018-09-18T10:07:49.074Z,63.85
2018-09-18T10:10:20.544Z,62.23
2018-09-18T10:12:49.677Z,64.19
2018-09-18T10:15:19.125Z,62.65
2018-09-18T10:17:48.338Z,63.35
2018-09-18T10:20:17.509Z,62.59
2018-09-18T10:22:46.778Z,63.48
2018-09-18T10:25:15.946Z,61.45
2018-09-18T10:27:45.129Z,61.45
2018-09-18T10:30:14.292Z,61.85
2018-09-18T10:32:43.517Z,60.03
2018-09-18T10:35:12.695Z,61.39
2018-09-18T10:37:41.826Z,60.80
2018-09-18T10:40:11.173Z,60.92
2018-09-18T10:42:40.394Z,59.59
2018-09-18T10:45:10.041Z,59.54
2018-09-18T10:47:39.228Z,57.30
2018-09-18T10:50:08.400Z,58.58
2018-09-18T10:52:37.834Z,59.59
2018-09-18T10:55:07.210Z,57.60
2018-09-18T10:57:36.343Z,57.72
2018-09-18T11:00:06.596Z,57.97
2018-09-18T11:02:35.748Z,57.90
2018-09-18T11:05:05.055Z,57.33
2018-09-18T11:07:34.333Z,58.65
2018-09-18T11:10:03.587Z,56.51
2018-09-18T11:12:32.679Z,57.17
2018-09-18T11:15:02.467Z,58.16
2018-09-18T11:17:31.569Z,58.55
2018-09-18T11:20:00.879Z,57.52
2018-09-18T11:22:29.975Z,58.59
2018-09-18T11:24:59.175Z,59.24
2018-09-18T11:27:28.434Z,58.40
2018-09-18T11:29:58.346Z,56.95
2018-09-18T11:32:27.515Z,57.27
2018-09-18T11:34:56.771Z,55.04
2018-09-18T11:37:25.957Z,56.07
2018-09-18T11:39:55.161Z,54.93
2018-09-18T11:42:24.338Z,54.89
2018-09-18T11:44:53.502Z,56.23
2018-09-18T11:47:22.678Z,56.57
2018-09-18T11:49:51.881Z,56.50
2018-09-18T11:52:21.026Z,54.52
2018-09-18T11:54:50.439Z,53.90
2018-09-18T11:57:19.592Z,53.96
2018-09-18T11:59:48.813Z,55.59
2018-09-18T12:02:18.017Z,55.61
2018-09-18T12:04:47.266Z,55.23
2018-09-18T12:07:16.416Z,55.61
2018-09-18T12:09:45.690Z,56.67
2018-09-18T12:12:14.948Z,56.16
2018-09-18T12:14:44.183Z,54.93
2018-09-18T12:17:13.363Z,54.71
2018-09-18T12:19:42.537Z,52.95
2018-09-18T12:22:11.718Z,54.87
2018-09-18T12:24:40.816Z,52.59
2018-09-18T12:27:10.317Z,52.28
2018-09-18T12:29:39.534Z,52.77
2018-09-18T12:32:08.844Z,52.96
2018-09-18T12:34:38.422Z,51.89
2018-09-18T12:37:07.950Z,53.52
2018-09-18T12:39:37.095Z,53.50
2018-09-18T12:42:07.264Z,53.34
2018-09-18T12:44:36.297Z,52.39
2018-09-18T12:47:05.538Z,52.47
2018-09-18T12:49:34.930Z,53.06
2018-09-18T12:52:03.956Z,54.14
2018-09-18T12:54:33.143Z,56.52
2018-09-18T12:57:02.481Z,55.25
2018-09-18T12:59:31.566Z,53.87
2018-09-18T13:02:00.717Z,51.79
2018-09-18T13:04:29.283Z,52.85
2018-09-18T13:06:57.932Z,51.69
2018-09-18T13:09:26.563Z,51.98
2018-09-18T13:11:55.289Z,53.28
2018-09-18T13:14:23.884Z,53.99
2018-09-18T13:16:53.160Z,53.47
2018-09-18T13:19:22.409Z,53.46
2018-09-18T13:21:51.547Z,53.57
2018-09-18T13:24:20.699Z,53.06
2018-09-18T13:26:50.010Z,53.38
2018-09-18T13:29:19.178Z,53.83
2018-09-18T13:31:48.373Z,53.42
2018-09-18T13:34:17.949Z,53.03
2018-09-18T13:36:47.081Z,51.84
2018-09-18T13:39:16.221Z,52.67
2018-09-18T13:41:45.456Z,52.03
2018-09-18T13:44:14.654Z,51.86
2018-09-18T13:46:43.773Z,49.91
2018-09-18T13:49:13.026Z,50.89
2018-09-18T13:51:42.307Z,49.34
2018-09-18T13:54:11.476Z,52.61
2018-09-18T13:56:40.792Z,50.69
2018-09-18T13:59:09.906Z,51.42
2018-09-18T14:01:39.296Z,50.62
2018-09-18T14:04:08.450Z,51.19
2018-09-18T14:06:37.618Z,51.36
2018-09-18T14:09:08.543Z,51.77
2018-09-18T14:11:38.108Z,52.97
2018-09-18T14:14:07.435Z,50.88
2018-09-18T14:16:36.630Z,52.01
2018-09-18T14:19:05.882Z,51.06
2018-09-18T14:21:35.079Z,51.49
2018-09-18T14:24:04.249Z,51.23
2018-09-18T14:26:33.531Z,51.35
2018-09-18T14:29:02.516Z,50.51
2018-09-18T14:31:32.427Z,50.52
2018-09-18T14:34:01.586Z,50.62
2018-09-18T14:36:30.715Z,50.23
2018-09-18T14:38:59.976Z,50.60
2018-09-18T14:41:29.169Z,50.18
2018-09-18T14:43:58.372Z,49.93
2018-09-18T14:46:27.573Z,50.13
2018-09-18T14:48:56.866Z,50.83
2018-09-18T14:51:26.042Z,50.31
2018-09-18T14:53:55.829Z,50.30
2018-09-18T14:56:25.086Z,51.99
2018-09-18T14:58:54.232Z,49.72
2018-09-18T15:01:23.440Z,50.38
2018-09-18T15:03:52.968Z,48.84
2018-09-18T15:06:22.091Z,50.19
2018-09-18T15:08:51.271Z,50.28
2018-09-18T15:11:20.487Z,51.54
2018-09-18T15:13:49.733Z,51.07
2018-09-18T15:16:18.901Z,50.84
2018-09-18T15:18:48.165Z,51.29
2018-09-18T15:21:17.440Z,50.41
2018-09-18T15:23:46.566Z,51.15
2018-09-18T15:26:15.730Z,52.37
2018-09-18T15:28:44.889Z,51.36
2018-09-18T15:31:14.223Z,53.01
2018-09-18T15:33:43.778Z,51.43
2018-09-18T15:36:12.860Z,53.31
2018-09-18T15:38:42.877Z,53.35
2018-09-18T15:41:12.405Z,53.15
2018-09-18T15:43:42.060Z,51.94
2018-09-18T15:46:11.428Z,50.88
2018-09-18T15:48:40.978Z,51.79
2018-09-18T15:51:10.668Z,51.91
2018-09-18T15:53:40.366Z,52.43
2018-09-18T15:56:09.958Z,53.04
2018-09-18T15:58:40.677Z,52.33
2018-09-18T16:01:10.757Z,52.63
2018-09-18T16:03:40.589Z,53.39
2018-09-18T16:06:09.758Z,53.75
2018-09-18T16:08:40.141Z,54.67
2018-09-18T16:11:09.523Z,54.77
2018-09-18T16:13:38.689Z,54.08
2018-09-18T16:16:08.362Z,55.87
2018-09-18T16:18:37.885Z,56.07
2018-09-18T16:21:07.117Z,55.51
2018-09-18T16:23:36.777Z,56.58
2018-09-18T16:26:06.052Z,56.14
2018-09-18T16:28:35.438Z,56.56
2018-09-18T16:31:04.920Z,57.10
2018-09-18T16:33:34.090Z,56.68
2018-09-18T16:36:03.278Z,57.34
2018-09-18T16:38:32.934Z,58.16
2018-09-18T16:41:02.289Z,58.53
2018-09-18T16:43:31.392Z,58.36
2018-09-18T16:46:00.979Z,59.49
2018-09-18T16:48:30.291Z,59.62
2018-09-18T16:50:59.430Z,60.40
2018-09-18T16:53:28.986Z,60.90
2018-09-18T16:55:58.101Z,60.31
2018-09-18T16:58:27.706Z,61.23
2018-09-18T17:00:57.131Z,61.29
2018-09-18T17:03:26.301Z,62.36
2018-09-18T17:05:55.510Z,62.05
2018-09-18T17:08:24.940Z,61.33
2018-09-18T17:10:54.089Z,60.98
2018-09-18T17:13:23.373Z,61.88
2018-09-18T17:15:52.925Z,62.14
2018-09-18T17:18:22.127Z,62.41
2018-09-18T17:20:51.595Z,62.36
2018-09-18T17:23:21.111Z,61.94
2018-09-18T17:25:50.241Z,62.79
2018-09-18T17:28:19.524Z,62.01
2018-09-18T17:30:48.658Z,63.08
2018-09-18T17:33:18.112Z,63.03
2018-09-18T17:35:47.565Z,63.05
2018-09-18T17:38:16.800Z,63.13
2018-09-18T17:40:45.934Z,62.94
2018-09-18T17:43:15.180Z,62.88
2018-09-18T17:45:44.417Z,62.35
2018-09-18T17:48:13.615Z,62.69
2018-09-18T17:50:43.070Z,63.00
2018-09-18T17:53:12.340Z,62.44
2018-09-18T17:55:41.926Z,62.75
2018-09-18T17:58:11.195Z,62.93
2018-09-18T18:00:40.421Z,63.12
2018-09-18T18:03:09.721Z,62.70
2018-09-18T18:05:39.019Z,64.06
2018-09-18T18:08:08.428Z,63.35
2018-09-18T18:10:37.664Z,63.82
2018-09-18T18:13:07.837Z,63.24
2018-09-18T18:15:37.598Z,63.97
2018-09-18T18:18:06.798Z,64.85
2018-09-18T18:20:36.062Z,65.47
2018-09-18T18:23:05.870Z,66.51
2018-09-18T18:25:35.106Z,67.94
2018-09-18T18:28:04.377Z,67.62
2018-09-18T18:30:33.682Z,68.11
2018-09-18T18:33:02.942Z,68.58
2018-09-18T18:35:32.174Z,70.42
2018-09-18T18:38:01.665Z,70.94
2018-09-18T18:40:30.839Z,71.09
2018-09-18T18:43:00.017Z,71.14
2018-09-18T18:45:29.450Z,71.17
2018-09-18T18:47:58.836Z,71.31
2018-09-18T18:50:27.913Z,71.25
2018-09-18T18:52:57.362Z,71.47
2018-09-18T18:55:26.567Z,72.23
2018-09-18T18:57:55.699Z,72.62
2018-09-18T19:00:25.287Z,72.91
2018-09-18T19:02:54.524Z,73.06
2018-09-18T19:05:24.162Z,73.95
2018-09-18T19:07:53.365Z,74.56
2018-09-18T19:10:22.650Z,75.14
2018-09-18T19:12:51.836Z,75.13
2018-09-18T19:15:21.053Z,74.96
2018-09-18T19:17:50.263Z,75.12
2018-09-18T19:20:19.451Z,75.18
2018-09-18T19:22:49.093Z,75.71
2018-09-18T19:25:18.528Z,75.18
2018-09-18T19:27:47.730Z,75.17
2018-09-18T19:30:17.714Z,74.74
2018-09-18T19:32:46.908Z,75.56
2018-09-18T19:35:16.102Z,75.07
2018-09-18T19:37:45.456Z,74.07
2018-09-18T19:40:14.777Z,73.74
2018-09-18T19:42:43.930Z,72.88
2018-09-18T19:45:13.144Z,73.23
2018-09-18T19:47:42.294Z,74.56
2018-09-18T19:50:16.031Z,75.98
2018-09-18T19:52:46.648Z,76.13
2018-09-18T19:55:16.429Z,77.32
2018-09-18T19:57:46.291Z,78.15
2018-09-18T20:00:15.502Z,78.58
2018-09-18T20:02:44.654Z,78.84
2018-09-18T20:05:14.119Z,79.84
2018-09-18T20:07:43.237Z,80.05
2018-09-18T20:10:12.371Z,80.13
2018-09-18T20:12:41.626Z,80.65
2018-09-18T20:15:10.840Z,80.96
2018-09-18T20:17:40.000Z,81.67
2018-09-18T20:20:09.548Z,81.73
2018-09-18T20:22:38.693Z,81.30
2018-09-18T20:25:08.038Z,81.36
2018-09-18T20:27:37.261Z,82.25
2018-09-18T20:30:06.704Z,82.67
2018-09-18T20:32:35.872Z,83.12
2018-09-18T20:35:05.046Z,83.44
2018-09-18T20:37:34.294Z,84.02
2018-09-18T20:40:04.329Z,84.46
2018-09-18T20:42:33.661Z,84.85
2018-09-18T20:45:02.819Z,85.17
2018-09-18T20:47:31.978Z,84.64
2018-09-18T20:50:01.213Z,85.42
2018-09-18T20:52:30.407Z,85.84
2018-09-18T20:54:59.911Z,85.63
2018-09-18T20:57:29.226Z,86.49
2018-09-18T20:59:58.380Z,86.07
2018-09-18T21:02:29.148Z,86.89
2018-09-18T21:04:58.348Z,87.31
2018-09-18T21:07:27.530Z,87.74
2018-09-18T21:09:56.674Z,87.47
2018-09-18T21:12:25.962Z,87.26
2018-09-18T21:14:55.088Z,87.88
2018-09-18T21:17:24.303Z,87.55
2018-09-18T21:19:53.562Z,87.68
2018-09-18T21:22:22.713Z,88.60
2018-09-18T21:25:00.513Z,89.05
2018-09-18T21:27:29.669Z,89.54
2018-09-18T21:29:58.825Z,88.99
2018-09-18T21:32:28.047Z,89.22
2018-09-18T21:34:57.174Z,89.36
2018-09-18T21:37:26.367Z,90.03
2018-09-18T21:39:55.622Z,90.60
2018-09-18T21:42:24.888Z,90.63
2018-09-18T21:44:54.043Z,92.80
2018-09-18T21:47:23.338Z,93.04
2018-09-18T21:49:53.255Z,93.80
2018-09-18T21:52:22.382Z,94.56
2018-09-18T21:54:51.545Z,94.48
2018-09-18T21:57:20.736Z,94.01
2018-09-18T21:59:50.070Z,94.72
2018-09-18T22:02:19.263Z,94.74
2018-09-18T22:04:48.423Z,94.23
2018-09-18T22:07:17.585Z,94.68
2018-09-18T22:09:46.788Z,94.43
2018-09-18T22:12:16.086Z,95.38
2018-09-18T22:14:45.221Z,95.36
2018-09-18T22:17:14.408Z,95.22
2018-09-18T22:19:43.600Z,95.50
2018-09-18T22:22:12.836Z,96.19
2018-09-18T22:24:42.418Z,96.96
2018-09-18T22:27:11.574Z,97.48
2018-09-18T22:29:40.735Z,97.35
2018-09-18T22:32:09.925Z,98.08
2018-09-18T22:34:39.078Z,97.69
2018-09-18T22:37:08.808Z,98.31
2018-09-18T22:39:41.201Z,93.52
2018-09-18T22:42:10.397Z,92.59
2018-09-18T22:44:39.636Z,91.89
2018-09-18T22:47:09.106Z,91.22
2018-09-18T22:49:38.473Z,91.05
2018-09-18T22:52:07.725Z,91.08
2018-09-18T22:54:37.131Z,90.79
2018-09-18T22:57:06.681Z,90.55
2018-09-18T22:59:36.229Z,89.28
2018-09-18T23:02:05.561Z,88.91
2018-09-18T23:04:34.757Z,88.88
2018-09-18T23:07:03.942Z,88.52
2018-09-18T23:09:33.458Z,88.39
2018-09-18T23:12:02.739Z,88.95
2018-09-18T23:14:31.882Z,89.36
2018-09-18T23:17:01.139Z,89.13
2018-09-18T23:19:31.138Z,89.52
2018-09-18T23:22:00.292Z,89.58
2018-09-18T23:24:29.509Z,88.66
2018-09-18T23:26:58.853Z,88.52
2018-09-18T23:29:28.028Z,88.72
2018-09-18T23:31:57.240Z,88.70
2018-09-18T23:34:26.441Z,87.91
2018-09-18T23:36:55.754Z,87.36
2018-09-18T23:39:24.889Z,86.93
2018-09-18T23:41:54.071Z,87.12
2018-09-18T23:44:23.208Z,86.34
2018-09-18T23:46:52.377Z,86.89
2018-09-18T23:49:21.946Z,86.65
2018-09-18T23:51:51.265Z,86.93
2018-09-18T23:54:20.517Z,87.12
2018-09-18T23:56:49.754Z,86.69
2018-09-18T23:59:18.926Z,86.72
